sensor_id;sensor_type;location;lat;lon;timestamp;P1;P2;P0
65556;PMS3003;52200;53.490;14.376;2023-05-07T00:00:19;28.00;21.00;13.00
65556;PMS3003;52200;53.490;14.376;2023-05-07T00:02:45;24.50;19.50;13.25
65556;PMS3003;52200;53.490;14.376;2023-05-07T00:05:11;24.60;18.00;11.80
65556;PMS3003;52200;53.490;14.376;2023-05-07T00:07:36;25.00;19.25;12.75
65556;PMS3003;52200;53.490;14.376;2023-05-07T00:10:03;23.75;18.75;13.00
65556;PMS3003;52200;53.490;14.376;2023-05-07T00:12:29;21.20;17.80;10.40
65556;PMS3003;52200;53.490;14.376;2023-05-07T00:14:58;25.20;18.40;10.20
65556;PMS3003;52200;53.490;14.376;2023-05-07T00:17:24;24.20;19.60;10.20
65556;PMS3003;52200;53.490;14.376;2023-05-07T00:19:50;21.75;18.75;11.75
65556;PMS3003;52200;53.490;14.376;2023-05-07T00:22:15;26.50;18.75;11.50
65556;PMS3003;52200;53.490;14.376;2023-05-07T00:24:41;23.50;18.75;11.50
65556;PMS3003;52200;53.490;14.376;2023-05-07T00:27:06;24.50;19.00;10.00
65556;PMS3003;52200;53.490;14.376;2023-05-07T00:29:31;25.00;19.00;11.25
65556;PMS3003;52200;53.490;14.376;2023-05-07T00:31:57;23.00;18.00;13.00
65556;PMS3003;52200;53.490;14.376;2023-05-07T00:34:22;22.75;19.25;11.50
65556;PMS3003;52200;53.490;14.376;2023-05-07T00:36:48;27.25;22.00;13.00
65556;PMS3003;52200;53.490;14.376;2023-05-07T00:39:13;26.50;21.50;12.00
65556;PMS3003;52200;53.490;14.376;2023-05-07T00:41:39;25.00;19.00;11.25
65556;PMS3003;52200;53.490;14.376;2023-05-07T00:44:05;23.25;18.00;10.00
65556;PMS3003;52200;53.490;14.376;2023-05-07T00:46:31;24.20;19.20;9.40
65556;PMS3003;52200;53.490;14.376;2023-05-07T00:48:57;24.00;18.20;11.80
65556;PMS3003;52200;53.490;14.376;2023-05-07T00:51:24;27.00;21.60;13.00
65556;PMS3003;52200;53.490;14.376;2023-05-07T00:53:52;20.80;17.20;10.20
65556;PMS3003;52200;53.490;14.376;2023-05-07T00:56:18;26.00;21.40;13.20
65556;PMS3003;52200;53.490;14.376;2023-05-07T00:58:45;24.80;17.20;10.00
65556;PMS3003;52200;53.490;14.376;2023-05-07T01:01:11;26.75;20.50;12.00
65556;PMS3003;52200;53.490;14.376;2023-05-07T01:03:36;24.25;20.00;11.00
65556;PMS3003;52200;53.490;14.376;2023-05-07T01:06:02;25.50;19.00;10.00
65556;PMS3003;52200;53.490;14.376;2023-05-07T01:08:28;27.00;21.40;11.80
65556;PMS3003;52200;53.490;14.376;2023-05-07T01:10:55;25.80;17.80;10.00
65556;PMS3003;52200;53.490;14.376;2023-05-07T01:13:22;22.40;17.80;10.20
65556;PMS3003;52200;53.490;14.376;2023-05-07T01:15:48;26.80;19.60;10.20
65556;PMS3003;52200;53.490;14.376;2023-05-07T01:18:14;27.00;20.00;13.00
65556;PMS3003;52200;53.490;14.376;2023-05-07T01:20:40;26.80;18.20;10.60
65556;PMS3003;52200;53.490;14.376;2023-05-07T01:23:06;27.80;20.40;12.00
65556;PMS3003;52200;53.490;14.376;2023-05-07T01:25:32;23.60;18.60;11.00
65556;PMS3003;52200;53.490;14.376;2023-05-07T01:27:57;24.25;19.50;12.00
65556;PMS3003;52200;53.490;14.376;2023-05-07T01:30:24;25.40;19.60;12.80
65556;PMS3003;52200;53.490;14.376;2023-05-07T01:32:57;26.00;21.00;10.00
65556;PMS3003;52200;53.490;14.376;2023-05-07T01:35:29;26.60;21.00;10.20
65556;PMS3003;52200;53.490;14.376;2023-05-07T01:37:57;20.00;15.60;9.00
65556;PMS3003;52200;53.490;14.376;2023-05-07T01:40:24;26.00;19.00;10.50
65556;PMS3003;52200;53.490;14.376;2023-05-07T01:42:49;24.80;20.80;13.40
65556;PMS3003;52200;53.490;14.376;2023-05-07T01:45:15;21.00;16.40;9.60
65556;PMS3003;52200;53.490;14.376;2023-05-07T01:47:41;27.25;20.75;13.00
65556;PMS3003;52200;53.490;14.376;2023-05-07T01:50:07;24.80;18.80;12.00
65556;PMS3003;52200;53.490;14.376;2023-05-07T01:52:35;24.00;18.60;12.00
65556;PMS3003;52200;53.490;14.376;2023-05-07T01:55:02;24.20;19.60;11.00
65556;PMS3003;52200;53.490;14.376;2023-05-07T01:57:28;26.75;20.50;12.00
65556;PMS3003;52200;53.490;14.376;2023-05-07T01:59:53;26.25;18.00;11.50
65556;PMS3003;52200;53.490;14.376;2023-05-07T02:02:18;23.50;19.50;12.75
65556;PMS3003;52200;53.490;14.376;2023-05-07T02:04:44;27.25;21.75;12.50
65556;PMS3003;52200;53.490;14.376;2023-05-07T02:07:09;24.50;19.50;13.00
65556;PMS3003;52200;53.490;14.376;2023-05-07T02:09:35;26.00;19.25;12.00
65556;PMS3003;52200;53.490;14.376;2023-05-07T02:12:00;27.25;22.00;12.00
65556;PMS3003;52200;53.490;14.376;2023-05-07T02:14:26;25.75;19.25;12.00
65556;PMS3003;52200;53.490;14.376;2023-05-07T02:16:51;22.75;17.50;10.00
65556;PMS3003;52200;53.490;14.376;2023-05-07T02:19:17;27.00;22.50;12.25
65556;PMS3003;52200;53.490;14.376;2023-05-07T02:21:43;28.00;21.40;12.60
65556;PMS3003;52200;53.490;14.376;2023-05-07T02:24:08;24.75;18.75;12.00
65556;PMS3003;52200;53.490;14.376;2023-05-07T02:26:34;28.75;21.25;12.50
65556;PMS3003;52200;53.490;14.376;2023-05-07T02:28:59;30.25;22.50;13.00
65556;PMS3003;52200;53.490;14.376;2023-05-07T02:31:25;28.50;21.75;12.00
65556;PMS3003;52200;53.490;14.376;2023-05-07T02:33:50;26.75;20.50;11.50
65556;PMS3003;52200;53.490;14.376;2023-05-07T02:36:15;28.50;22.25;14.00
65556;PMS3003;52200;53.490;14.376;2023-05-07T02:38:41;29.00;22.75;12.00
65556;PMS3003;52200;53.490;14.376;2023-05-07T02:41:07;26.00;21.25;13.00
65556;PMS3003;52200;53.490;14.376;2023-05-07T02:43:32;28.50;22.25;14.00
65556;PMS3003;52200;53.490;14.376;2023-05-07T02:46:04;30.25;22.00;11.75
65556;PMS3003;52200;53.490;14.376;2023-05-07T02:48:31;30.00;24.40;12.00
65556;PMS3003;52200;53.490;14.376;2023-05-07T02:50:57;30.20;22.00;12.20
65556;PMS3003;52200;53.490;14.376;2023-05-07T02:53:23;33.00;23.20;14.40
65556;PMS3003;52200;53.490;14.376;2023-05-07T02:55:51;30.60;23.20;13.80
65556;PMS3003;52200;53.490;14.376;2023-05-07T02:58:23;27.80;22.40;12.40
65556;PMS3003;52200;53.490;14.376;2023-05-07T03:00:49;31.20;24.80;14.20
65556;PMS3003;52200;53.490;14.376;2023-05-07T03:03:15;28.75;23.50;13.00
65556;PMS3003;52200;53.490;14.376;2023-05-07T03:05:41;32.75;27.00;16.25
65556;PMS3003;52200;53.490;14.376;2023-05-07T03:08:07;28.80;23.80;16.20
65556;PMS3003;52200;53.490;14.376;2023-05-07T03:10:32;35.40;27.20;17.00
65556;PMS3003;52200;53.490;14.376;2023-05-07T03:12:58;29.50;24.25;16.75
65556;PMS3003;52200;53.490;14.376;2023-05-07T03:15:23;36.25;28.00;18.00
65556;PMS3003;52200;53.490;14.376;2023-05-07T03:17:49;32.00;24.75;16.00
65556;PMS3003;52200;53.490;14.376;2023-05-07T03:20:14;29.75;20.00;13.25
65556;PMS3003;52200;53.490;14.376;2023-05-07T03:22:40;35.50;29.25;16.00
65556;PMS3003;52200;53.490;14.376;2023-05-07T03:25:06;25.50;21.00;13.50
65556;PMS3003;52200;53.490;14.376;2023-05-07T03:27:32;32.20;23.80;14.20
65556;PMS3003;52200;53.490;14.376;2023-05-07T03:29:58;28.75;24.75;12.75
65556;PMS3003;52200;53.490;14.376;2023-05-07T03:32:23;30.00;25.25;15.50
65556;PMS3003;52200;53.490;14.376;2023-05-07T03:34:49;25.25;21.50;14.00
65556;PMS3003;52200;53.490;14.376;2023-05-07T03:37:15;27.25;22.00;13.25
65556;PMS3003;52200;53.490;14.376;2023-05-07T03:39:40;31.00;26.50;16.00
65556;PMS3003;52200;53.490;14.376;2023-05-07T03:42:05;26.75;21.75;13.00
65556;PMS3003;52200;53.490;14.376;2023-05-07T03:44:31;28.75;22.00;15.00
65556;PMS3003;52200;53.490;14.376;2023-05-07T03:46:56;29.75;22.00;15.00
65556;PMS3003;52200;53.490;14.376;2023-05-07T03:49:22;28.25;23.00;14.75
65556;PMS3003;52200;53.490;14.376;2023-05-07T03:51:47;29.00;24.00;15.50
65556;PMS3003;52200;53.490;14.376;2023-05-07T03:54:13;37.25;25.75;16.50
65556;PMS3003;52200;53.490;14.376;2023-05-07T03:56:38;36.25;27.75;16.00
65556;PMS3003;52200;53.490;14.376;2023-05-07T03:59:03;33.75;26.25;15.00
65556;PMS3003;52200;53.490;14.376;2023-05-07T04:01:29;32.75;25.00;15.25
65556;PMS3003;52200;53.490;14.376;2023-05-07T04:03:55;35.00;25.50;14.50
65556;PMS3003;52200;53.490;14.376;2023-05-07T04:06:21;32.40;26.20;14.80
65556;PMS3003;52200;53.490;14.376;2023-05-07T04:08:47;33.50;23.50;14.00
65556;PMS3003;52200;53.490;14.376;2023-05-07T04:11:12;30.25;25.50;16.00
65556;PMS3003;52200;53.490;14.376;2023-05-07T04:13:37;29.00;23.00;16.00
65556;PMS3003;52200;53.490;14.376;2023-05-07T04:16:03;27.50;23.25;16.00
65556;PMS3003;52200;53.490;14.376;2023-05-07T04:18:29;29.20;22.00;15.60
65556;PMS3003;52200;53.490;14.376;2023-05-07T04:20:55;28.75;22.75;12.75
65556;PMS3003;52200;53.490;14.376;2023-05-07T04:23:20;30.75;22.75;14.50
65556;PMS3003;52200;53.490;14.376;2023-05-07T04:25:46;29.00;24.00;12.50
65556;PMS3003;52200;53.490;14.376;2023-05-07T04:28:11;33.00;24.50;15.75
65556;PMS3003;52200;53.490;14.376;2023-05-07T04:30:37;32.40;24.20;14.80
65556;PMS3003;52200;53.490;14.376;2023-05-07T04:33:03;33.00;25.00;15.80
65556;PMS3003;52200;53.490;14.376;2023-05-07T04:35:29;32.25;23.00;14.00
65556;PMS3003;52200;53.490;14.376;2023-05-07T04:37:54;32.50;23.75;15.25
65556;PMS3003;52200;53.490;14.376;2023-05-07T04:40:20;29.75;21.75;13.00
65556;PMS3003;52200;53.490;14.376;2023-05-07T04:42:45;28.00;21.75;13.00
65556;PMS3003;52200;53.490;14.376;2023-05-07T04:45:11;28.75;23.25;13.00
65556;PMS3003;52200;53.490;14.376;2023-05-07T04:47:37;24.60;18.60;12.80
65556;PMS3003;52200;53.490;14.376;2023-05-07T04:50:03;26.00;20.20;11.80
65556;PMS3003;52200;53.490;14.376;2023-05-07T04:52:29;26.00;19.80;12.40
65556;PMS3003;52200;53.490;14.376;2023-05-07T04:54:55;20.75;16.00;10.00
65556;PMS3003;52200;53.490;14.376;2023-05-07T04:57:20;23.00;18.00;12.00
65556;PMS3003;52200;53.490;14.376;2023-05-07T04:59:46;24.00;15.75;9.25
65556;PMS3003;52200;53.490;14.376;2023-05-07T05:02:11;24.75;19.25;11.75
65556;PMS3003;52200;53.490;14.376;2023-05-07T05:04:36;23.00;16.00;10.00
65556;PMS3003;52200;53.490;14.376;2023-05-07T05:07:02;28.25;20.00;10.50
65556;PMS3003;52200;53.490;14.376;2023-05-07T05:09:31;23.20;16.60;10.20
65556;PMS3003;52200;53.490;14.376;2023-05-07T05:11:56;25.25;18.00;10.00
65556;PMS3003;52200;53.490;14.376;2023-05-07T05:14:21;23.25;18.75;12.75
65556;PMS3003;52200;53.490;14.376;2023-05-07T05:16:47;23.75;18.75;10.25
65556;PMS3003;52200;53.490;14.376;2023-05-07T05:19:12;22.75;19.00;11.00
65556;PMS3003;52200;53.490;14.376;2023-05-07T05:21:38;21.50;18.00;10.00
65556;PMS3003;52200;53.490;14.376;2023-05-07T05:24:03;21.00;15.25;9.00
65556;PMS3003;52200;53.490;14.376;2023-05-07T05:26:29;23.50;16.50;11.00
65556;PMS3003;52200;53.490;14.376;2023-05-07T05:28:54;17.50;13.50;9.00
65556;PMS3003;52200;53.490;14.376;2023-05-07T05:31:20;18.00;12.00;9.00
65556;PMS3003;52200;53.490;14.376;2023-05-07T05:33:46;22.60;17.60;8.00
65556;PMS3003;52200;53.490;14.376;2023-05-07T05:36:11;27.25;18.00;10.00
65556;PMS3003;52200;53.490;14.376;2023-05-07T05:38:38;18.20;13.20;9.00
65556;PMS3003;52200;53.490;14.376;2023-05-07T05:41:04;21.20;16.60;10.00
65556;PMS3003;52200;53.490;14.376;2023-05-07T05:43:29;23.50;16.00;8.75
65556;PMS3003;52200;53.490;14.376;2023-05-07T05:45:55;20.00;14.00;9.75
65556;PMS3003;52200;53.490;14.376;2023-05-07T05:48:21;20.00;16.20;8.60
65556;PMS3003;52200;53.490;14.376;2023-05-07T05:50:47;19.00;15.40;9.40
65556;PMS3003;52200;53.490;14.376;2023-05-07T05:53:13;20.00;15.25;8.25
65556;PMS3003;52200;53.490;14.376;2023-05-07T05:55:38;17.50;14.25;8.25
65556;PMS3003;52200;53.490;14.376;2023-05-07T05:58:04;18.75;15.50;9.00
65556;PMS3003;52200;53.490;14.376;2023-05-07T06:00:30;18.00;12.50;8.25
65556;PMS3003;52200;53.490;14.376;2023-05-07T06:02:55;21.00;15.75;8.00
65556;PMS3003;52200;53.490;14.376;2023-05-07T06:05:21;19.50;14.50;6.25
65556;PMS3003;52200;53.490;14.376;2023-05-07T06:07:46;15.25;12.00;7.25
65556;PMS3003;52200;53.490;14.376;2023-05-07T06:10:11;17.25;13.00;6.00
65556;PMS3003;52200;53.490;14.376;2023-05-07T06:12:37;17.25;11.25;6.25
65556;PMS3003;52200;53.490;14.376;2023-05-07T06:15:03;17.00;12.25;7.00
65556;PMS3003;52200;53.490;14.376;2023-05-07T06:17:28;16.00;11.40;6.00
65556;PMS3003;52200;53.490;14.376;2023-05-07T06:19:54;15.50;12.00;6.50
65556;PMS3003;52200;53.490;14.376;2023-05-07T06:22:20;17.50;13.75;6.00
65556;PMS3003;52200;53.490;14.376;2023-05-07T06:24:45;18.25;13.00;7.00
65556;PMS3003;52200;53.490;14.376;2023-05-07T06:27:11;15.75;11.25;6.00
65556;PMS3003;52200;53.490;14.376;2023-05-07T06:29:36;15.25;12.25;6.75
65556;PMS3003;52200;53.490;14.376;2023-05-07T06:32:12;20.50;13.75;7.25
65556;PMS3003;52200;53.490;14.376;2023-05-07T06:34:38;16.40;11.80;5.60
65556;PMS3003;52200;53.490;14.376;2023-05-07T06:37:05;17.40;13.40;7.00
65556;PMS3003;52200;53.490;14.376;2023-05-07T06:39:30;14.75;8.75;6.00
65556;PMS3003;52200;53.490;14.376;2023-05-07T06:41:56;14.60;9.20;5.00
65556;PMS3003;52200;53.490;14.376;2023-05-07T06:44:22;15.40;11.80;6.00
65556;PMS3003;52200;53.490;14.376;2023-05-07T06:46:48;12.75;8.00;5.00
65556;PMS3003;52200;53.490;14.376;2023-05-07T06:49:14;16.00;11.00;5.00
65556;PMS3003;52200;53.490;14.376;2023-05-07T06:51:39;15.40;11.80;5.40
65556;PMS3003;52200;53.490;14.376;2023-05-07T06:54:05;16.50;10.00;5.25
65556;PMS3003;52200;53.490;14.376;2023-05-07T06:56:31;15.25;8.25;4.25
65556;PMS3003;52200;53.490;14.376;2023-05-07T06:58:57;14.00;9.20;5.00
65556;PMS3003;52200;53.490;14.376;2023-05-07T07:01:22;16.00;11.00;5.25
65556;PMS3003;52200;53.490;14.376;2023-05-07T07:03:48;11.75;7.25;4.50
65556;PMS3003;52200;53.490;14.376;2023-05-07T07:06:13;13.00;8.00;5.00
65556;PMS3003;52200;53.490;14.376;2023-05-07T07:08:39;16.00;11.75;6.00
65556;PMS3003;52200;53.490;14.376;2023-05-07T07:11:04;14.00;7.75;5.00
65556;PMS3003;52200;53.490;14.376;2023-05-07T07:13:30;16.20;11.60;6.20
65556;PMS3003;52200;53.490;14.376;2023-05-07T07:15:56;16.25;9.75;6.00
65556;PMS3003;52200;53.490;14.376;2023-05-07T07:18:21;16.25;10.00;6.00
65556;PMS3003;52200;53.490;14.376;2023-05-07T07:20:47;17.00;12.25;6.50
65556;PMS3003;52200;53.490;14.376;2023-05-07T07:23:12;17.00;11.75;6.25
65556;PMS3003;52200;53.490;14.376;2023-05-07T07:25:38;16.25;12.50;7.00
65556;PMS3003;52200;53.490;14.376;2023-05-07T07:28:03;15.50;11.25;6.00
65556;PMS3003;52200;53.490;14.376;2023-05-07T07:30:30;15.00;10.00;6.00
65556;PMS3003;52200;53.490;14.376;2023-05-07T07:32:55;14.75;10.00;5.00
65556;PMS3003;52200;53.490;14.376;2023-05-07T07:35:25;18.80;13.00;7.40
65556;PMS3003;52200;53.490;14.376;2023-05-07T07:37:50;12.50;9.25;6.00
65556;PMS3003;52200;53.490;14.376;2023-05-07T07:40:16;14.75;9.75;5.00
65556;PMS3003;52200;53.490;14.376;2023-05-07T07:42:41;15.00;9.75;6.00
65556;PMS3003;52200;53.490;14.376;2023-05-07T07:45:07;15.75;11.50;7.00
65556;PMS3003;52200;53.490;14.376;2023-05-07T07:47:33;16.80;11.00;8.00
65556;PMS3003;52200;53.490;14.376;2023-05-07T07:49:58;14.25;10.00;6.00
65556;PMS3003;52200;53.490;14.376;2023-05-07T07:52:24;18.50;10.00;5.75
65556;PMS3003;52200;53.490;14.376;2023-05-07T07:54:49;13.50;9.50;6.00
65556;PMS3003;52200;53.490;14.376;2023-05-07T07:57:15;14.25;11.00;5.00
65556;PMS3003;52200;53.490;14.376;2023-05-07T07:59:40;13.00;10.00;5.50
65556;PMS3003;52200;53.490;14.376;2023-05-07T08:02:08;11.40;7.60;4.80
65556;PMS3003;52200;53.490;14.376;2023-05-07T08:04:33;13.50;10.25;6.25
65556;PMS3003;52200;53.490;14.376;2023-05-07T08:06:58;14.75;10.00;5.00
65556;PMS3003;52200;53.490;14.376;2023-05-07T08:09:24;13.00;9.00;6.00
65556;PMS3003;52200;53.490;14.376;2023-05-07T08:11:49;14.00;9.00;5.50
65556;PMS3003;52200;53.490;14.376;2023-05-07T08:14:15;14.25;9.50;5.50
65556;PMS3003;52200;53.490;14.376;2023-05-07T08:16:41;15.00;8.75;6.00
65556;PMS3003;52200;53.490;14.376;2023-05-07T08:19:06;13.00;10.00;6.00
65556;PMS3003;52200;53.490;14.376;2023-05-07T08:21:32;13.50;9.00;5.00
65556;PMS3003;52200;53.490;14.376;2023-05-07T08:23:57;12.00;9.00;5.00
65556;PMS3003;52200;53.490;14.376;2023-05-07T08:26:23;13.25;9.75;5.25
65556;PMS3003;52200;53.490;14.376;2023-05-07T08:28:48;12.00;8.50;5.00
65556;PMS3003;52200;53.490;14.376;2023-05-07T08:31:13;12.25;8.50;6.00
65556;PMS3003;52200;53.490;14.376;2023-05-07T08:33:39;12.00;9.00;6.00
65556;PMS3003;52200;53.490;14.376;2023-05-07T08:36:05;13.00;9.75;6.00
65556;PMS3003;52200;53.490;14.376;2023-05-07T08:38:30;13.50;10.25;6.50
65556;PMS3003;52200;53.490;14.376;2023-05-07T08:40:56;12.25;8.00;6.00
65556;PMS3003;52200;53.490;14.376;2023-05-07T08:43:21;13.25;8.50;5.00
65556;PMS3003;52200;53.490;14.376;2023-05-07T08:45:53;15.60;10.00;5.00
65556;PMS3003;52200;53.490;14.376;2023-05-07T08:48:21;13.20;9.20;5.00
65556;PMS3003;52200;53.490;14.376;2023-05-07T08:50:50;16.40;10.00;5.00
65556;PMS3003;52200;53.490;14.376;2023-05-07T08:53:16;12.40;8.00;5.80
65556;PMS3003;52200;53.490;14.376;2023-05-07T08:55:42;14.00;9.40;6.00
65556;PMS3003;52200;53.490;14.376;2023-05-07T08:58:08;13.75;9.75;4.00
65556;PMS3003;52200;53.490;14.376;2023-05-07T09:00:34;11.75;7.75;4.50
65556;PMS3003;52200;53.490;14.376;2023-05-07T09:03:01;12.00;8.60;4.80
65556;PMS3003;52200;53.490;14.376;2023-05-07T09:05:26;12.25;9.25;6.00
65556;PMS3003;52200;53.490;14.376;2023-05-07T09:07:52;15.50;10.00;5.00
65556;PMS3003;52200;53.490;14.376;2023-05-07T09:10:17;12.75;6.50;5.00
65556;PMS3003;52200;53.490;14.376;2023-05-07T09:12:43;12.00;8.50;6.00
65556;PMS3003;52200;53.490;14.376;2023-05-07T09:15:08;13.00;7.50;5.00
65556;PMS3003;52200;53.490;14.376;2023-05-07T09:17:34;11.80;8.40;5.00
65556;PMS3003;52200;53.490;14.376;2023-05-07T09:20:03;13.00;9.50;5.00
65556;PMS3003;52200;53.490;14.376;2023-05-07T09:22:31;13.60;9.40;5.40
65556;PMS3003;52200;53.490;14.376;2023-05-07T09:24:57;12.60;9.60;5.00
65556;PMS3003;52200;53.490;14.376;2023-05-07T09:27:23;13.25;9.00;5.00
65556;PMS3003;52200;53.490;14.376;2023-05-07T09:29:48;11.00;7.75;5.75
65556;PMS3003;52200;53.490;14.376;2023-05-07T09:32:15;9.00;5.20;4.00
65556;PMS3003;52200;53.490;14.376;2023-05-07T09:34:41;11.40;6.80;4.00
65556;PMS3003;52200;53.490;14.376;2023-05-07T09:37:06;11.40;7.20;4.00
65556;PMS3003;52200;53.490;14.376;2023-05-07T09:39:45;10.25;6.25;4.00
65556;PMS3003;52200;53.490;14.376;2023-05-07T09:42:12;11.60;7.00;5.00
65556;PMS3003;52200;53.490;14.376;2023-05-07T09:44:40;13.40;7.80;5.00
65556;PMS3003;52200;53.490;14.376;2023-05-07T09:47:06;11.80;8.00;5.00
65556;PMS3003;52200;53.490;14.376;2023-05-07T09:49:36;9.00;5.60;4.00
65556;PMS3003;52200;53.490;14.376;2023-05-07T09:52:05;10.60;7.00;3.00
65556;PMS3003;52200;53.490;14.376;2023-05-07T09:54:33;10.40;7.20;4.40
65556;PMS3003;52200;53.490;14.376;2023-05-07T09:57:03;12.60;8.40;4.40
65556;PMS3003;52200;53.490;14.376;2023-05-07T09:59:31;12.40;8.60;4.00
65556;PMS3003;52200;53.490;14.376;2023-05-07T10:01:58;10.00;6.00;3.20
65556;PMS3003;52200;53.490;14.376;2023-05-07T10:04:27;9.80;6.40;3.60
65556;PMS3003;52200;53.490;14.376;2023-05-07T10:06:53;10.60;6.40;3.80
65556;PMS3003;52200;53.490;14.376;2023-05-07T10:09:20;10.40;5.80;3.00
65556;PMS3003;52200;53.490;14.376;2023-05-07T10:11:48;10.00;6.00;3.40
65556;PMS3003;52200;53.490;14.376;2023-05-07T10:14:14;11.40;7.60;3.60
65556;PMS3003;52200;53.490;14.376;2023-05-07T10:16:40;12.00;6.50;3.00
65556;PMS3003;52200;53.490;14.376;2023-05-07T10:19:06;10.80;7.20;4.00
65556;PMS3003;52200;53.490;14.376;2023-05-07T10:21:38;10.00;6.40;4.00
65556;PMS3003;52200;53.490;14.376;2023-05-07T10:27:11;12.40;8.00;4.60
65556;PMS3003;52200;53.490;14.376;2023-05-07T10:35:03;11.20;6.60;4.00
65556;PMS3003;52200;53.490;14.376;2023-05-07T10:37:34;10.00;7.20;4.00
65556;PMS3003;52200;53.490;14.376;2023-05-07T10:40:00;9.75;7.50;3.00
65556;PMS3003;52200;53.490;14.376;2023-05-07T10:42:26;9.60;5.60;3.00
65556;PMS3003;52200;53.490;14.376;2023-05-07T10:44:51;10.25;7.75;4.75
65556;PMS3003;52200;53.490;14.376;2023-05-07T10:47:17;12.25;7.00;4.00
65556;PMS3003;52200;53.490;14.376;2023-05-07T10:52:20;10.00;5.50;3.00
65556;PMS3003;52200;53.490;14.376;2023-05-07T10:55:18;11.20;7.00;4.00
65556;PMS3003;52200;53.490;14.376;2023-05-07T10:57:40;12.60;6.00;4.40
65556;PMS3003;52200;53.490;14.376;2023-05-07T11:00:48;10.00;6.50;4.00
65556;PMS3003;52200;53.490;14.376;2023-05-07T11:05:29;10.80;6.60;4.20
65556;PMS3003;52200;53.490;14.376;2023-05-07T11:07:56;14.00;9.80;5.00
65556;PMS3003;52200;53.490;14.376;2023-05-07T11:10:23;13.20;8.00;5.20
65556;PMS3003;52200;53.490;14.376;2023-05-07T11:13:08;10.00;6.20;3.60
65556;PMS3003;52200;53.490;14.376;2023-05-07T11:15:35;9.00;6.00;3.75
65556;PMS3003;52200;53.490;14.376;2023-05-07T11:18:06;11.20;6.80;3.00
65556;PMS3003;52200;53.490;14.376;2023-05-07T11:26:04;11.20;6.20;4.00
65556;PMS3003;52200;53.490;14.376;2023-05-07T11:28:37;11.80;8.20;5.00
65556;PMS3003;52200;53.490;14.376;2023-05-07T11:31:04;11.60;7.60;3.00
65556;PMS3003;52200;53.490;14.376;2023-05-07T11:33:30;11.20;8.00;5.00
65556;PMS3003;52200;53.490;14.376;2023-05-07T11:35:56;11.00;7.00;4.00
65556;PMS3003;52200;53.490;14.376;2023-05-07T11:38:22;10.00;7.00;4.00
65556;PMS3003;52200;53.490;14.376;2023-05-07T11:40:48;12.75;8.25;5.00
65556;PMS3003;52200;53.490;14.376;2023-05-07T11:43:15;12.00;7.20;4.40
65556;PMS3003;52200;53.490;14.376;2023-05-07T11:45:41;11.00;8.00;5.00
65556;PMS3003;52200;53.490;14.376;2023-05-07T11:48:06;10.50;6.75;4.00
65556;PMS3003;52200;53.490;14.376;2023-05-07T11:50:32;11.00;8.00;4.00
65556;PMS3003;52200;53.490;14.376;2023-05-07T11:52:57;11.75;7.00;4.00
65556;PMS3003;52200;53.490;14.376;2023-05-07T11:55:23;12.00;9.25;4.50
65556;PMS3003;52200;53.490;14.376;2023-05-07T11:57:51;12.80;8.20;4.00
65556;PMS3003;52200;53.490;14.376;2023-05-07T12:00:16;8.50;7.75;4.00
65556;PMS3003;52200;53.490;14.376;2023-05-07T12:02:43;11.20;7.60;4.20
65556;PMS3003;52200;53.490;14.376;2023-05-07T12:05:10;9.60;7.00;4.00
65556;PMS3003;52200;53.490;14.376;2023-05-07T12:07:36;10.50;6.00;3.00
65556;PMS3003;52200;53.490;14.376;2023-05-07T12:10:07;9.00;5.00;4.00
65556;PMS3003;52200;53.490;14.376;2023-05-07T12:12:39;10.00;5.40;3.20
65556;PMS3003;52200;53.490;14.376;2023-05-07T12:15:06;9.00;7.00;4.00
65556;PMS3003;52200;53.490;14.376;2023-05-07T12:17:32;8.40;6.20;4.00
65556;PMS3003;52200;53.490;14.376;2023-05-07T12:19:58;10.25;6.00;3.00
65556;PMS3003;52200;53.490;14.376;2023-05-07T12:22:24;12.00;8.25;4.00
65556;PMS3003;52200;53.490;14.376;2023-05-07T12:24:50;11.25;7.75;5.00
65556;PMS3003;52200;53.490;14.376;2023-05-07T12:27:22;10.60;7.40;4.20
65556;PMS3003;52200;53.490;14.376;2023-05-07T12:29:48;10.00;8.20;4.40
65556;PMS3003;52200;53.490;14.376;2023-05-07T12:32:15;10.40;7.00;3.80
65556;PMS3003;52200;53.490;14.376;2023-05-07T12:34:42;8.40;7.20;2.80
65556;PMS3003;52200;53.490;14.376;2023-05-07T12:37:07;8.80;8.20;4.00
65556;PMS3003;52200;53.490;14.376;2023-05-07T12:39:33;9.75;7.00;4.00
65556;PMS3003;52200;53.490;14.376;2023-05-07T12:41:59;9.00;7.50;4.00
65556;PMS3003;52200;53.490;14.376;2023-05-07T12:44:25;9.40;6.80;3.20
65556;PMS3003;52200;53.490;14.376;2023-05-07T12:46:55;10.20;8.80;3.80
65556;PMS3003;52200;53.490;14.376;2023-05-07T12:49:20;8.00;7.00;3.00
65556;PMS3003;52200;53.490;14.376;2023-05-07T12:51:46;10.75;6.75;4.00
65556;PMS3003;52200;53.490;14.376;2023-05-07T12:54:13;8.80;6.00;2.80
65556;PMS3003;52200;53.490;14.376;2023-05-07T12:56:39;7.00;6.00;3.00
65556;PMS3003;52200;53.490;14.376;2023-05-07T12:59:05;7.50;6.25;2.50
65556;PMS3003;52200;53.490;14.376;2023-05-07T13:01:30;9.00;6.50;3.00
65556;PMS3003;52200;53.490;14.376;2023-05-07T13:04:00;8.80;8.00;3.40
65556;PMS3003;52200;53.490;14.376;2023-05-07T13:06:27;8.00;6.20;2.80
65556;PMS3003;52200;53.490;14.376;2023-05-07T13:08:53;8.25;5.00;2.00
65556;PMS3003;52200;53.490;14.376;2023-05-07T13:11:18;8.25;7.25;3.00
65556;PMS3003;52200;53.490;14.376;2023-05-07T13:13:44;10.25;8.00;3.00
65556;PMS3003;52200;53.490;14.376;2023-05-07T13:16:10;8.75;7.75;3.00
65556;PMS3003;52200;53.490;14.376;2023-05-07T13:18:37;9.60;7.80;3.80
65556;PMS3003;52200;53.490;14.376;2023-05-07T13:21:04;9.00;7.00;3.00
65556;PMS3003;52200;53.490;14.376;2023-05-07T13:23:29;8.75;8.75;3.00
65556;PMS3003;52200;53.490;14.376;2023-05-07T13:25:55;9.00;6.75;2.50
65556;PMS3003;52200;53.490;14.376;2023-05-07T13:28:21;9.60;7.80;3.80
65556;PMS3003;52200;53.490;14.376;2023-05-07T13:30:47;9.60;7.20;3.20
65556;PMS3003;52200;53.490;14.376;2023-05-07T13:33:13;8.80;7.40;3.40
65556;PMS3003;52200;53.490;14.376;2023-05-07T13:35:39;8.00;7.00;3.00
65556;PMS3003;52200;53.490;14.376;2023-05-07T13:38:05;9.60;8.00;3.60
65556;PMS3003;52200;53.490;14.376;2023-05-07T13:40:31;11.00;9.00;4.00
65556;PMS3003;52200;53.490;14.376;2023-05-07T13:42:57;11.00;9.00;4.00
65556;PMS3003;52200;53.490;14.376;2023-05-07T13:45:23;9.60;9.00;4.60
65556;PMS3003;52200;53.490;14.376;2023-05-07T13:47:51;9.60;6.20;3.80
65556;PMS3003;52200;53.490;14.376;2023-05-07T13:50:17;10.00;9.60;3.80
65556;PMS3003;52200;53.490;14.376;2023-05-07T13:52:43;9.60;7.60;4.80
65556;PMS3003;52200;53.490;14.376;2023-05-07T13:55:17;10.40;7.60;4.00
65556;PMS3003;52200;53.490;14.376;2023-05-07T13:57:43;11.20;7.60;3.00
65556;PMS3003;52200;53.490;14.376;2023-05-07T14:00:09;9.00;7.75;4.00